createdAt,value
2019-02-20T00:01:25.302Z,31.53
2019-02-20T00:03:53.889Z,36.37
2019-02-20T00:06:22.442Z,40.80
2019-02-20T00:08:51.132Z,37.63
2019-02-20T00:11:20.044Z,39.00
2019-02-20T00:13:48.705Z,56.93
2019-02-20T00:16:17.390Z,56.60
2019-02-20T00:18:46.106Z,53.97
2019-02-20T00:21:14.571Z,53.27
2019-02-20T00:23:43.237Z,48.47
2019-02-20T00:26:11.742Z,46.43
2019-02-20T00:28:40.096Z,43.40
2019-02-20T00:31:08.675Z,39.43
2019-02-20T00:33:37.401Z,34.90
2019-02-20T00:36:05.948Z,29.93
2019-02-20T00:38:34.527Z,36.47
2019-02-20T00:41:03.630Z,53.90
2019-02-20T00:43:32.010Z,46.60
2019-02-20T00:46:14.647Z,36.60
2019-02-20T00:49:02.649Z,34.50
2019-02-20T00:51:42.534Z,35.37
2019-02-20T00:54:10.780Z,34.70
2019-02-20T00:56:39.562Z,41.73
2019-02-20T00:59:09.937Z,37.57
2019-02-20T01:01:41.301Z,36.07
2019-02-20T01:04:10.775Z,31.10
2019-02-20T01:06:39.409Z,29.23
2019-02-20T01:09:08.472Z,24.07
2019-02-20T01:11:36.953Z,23.67
2019-02-20T01:14:05.410Z,24.40
2019-02-20T01:16:34.169Z,23.83
2019-02-20T01:19:02.892Z,22.70
2019-02-20T01:21:31.546Z,22.80
2019-02-20T01:24:00.238Z,23.13
2019-02-20T01:26:28.745Z,21.67
2019-02-20T01:28:57.398Z,21.17
2019-02-20T01:31:25.779Z,21.87
2019-02-20T01:33:54.397Z,22.97
2019-02-20T01:36:23.244Z,20.87
2019-02-20T01:38:51.729Z,21.43
2019-02-20T01:41:20.450Z,20.47
2019-02-20T01:43:49.091Z,21.30
2019-02-20T01:46:17.988Z,23.50
2019-02-20T01:48:46.709Z,21.33
2019-02-20T01:51:15.362Z,23.07
2019-02-20T01:53:45.313Z,21.03
2019-02-20T01:56:15.008Z,23.43
2019-02-20T01:58:43.463Z,26.20
2019-02-20T02:01:12.136Z,25.77
2019-02-20T02:03:40.874Z,23.27
2019-02-20T02:06:09.536Z,23.27
2019-02-20T02:08:37.902Z,20.80
2019-02-20T02:11:06.324Z,21.80
2019-02-20T02:13:34.949Z,25.57
2019-02-20T02:16:03.329Z,24.73
2019-02-20T02:18:31.861Z,24.03
2019-02-20T02:21:00.701Z,22.60
2019-02-20T02:23:29.473Z,25.27
2019-02-20T02:25:58.203Z,22.90
2019-02-20T02:28:26.864Z,24.87
2019-02-20T02:30:56.802Z,22.10
2019-02-20T02:33:25.492Z,23.60
2019-02-20T02:36:00.296Z,23.73
2019-02-20T02:38:29.015Z,23.23
2019-02-20T02:40:57.480Z,24.43
2019-02-20T02:43:26.139Z,23.40
2019-02-20T02:45:55.907Z,21.90
2019-02-20T02:48:24.321Z,19.60
2019-02-20T02:50:53.829Z,23.07
2019-02-20T02:53:30.255Z,22.13
2019-02-20T02:55:53.251Z,20.10
2019-02-20T02:58:21.975Z,20.07
2019-02-20T03:00:50.922Z,22.27
2019-02-20T03:03:19.504Z,22.13
2019-02-20T03:05:48.234Z,21.60
2019-02-20T03:08:16.882Z,20.97
2019-02-20T03:10:45.566Z,20.97
2019-02-20T03:13:14.315Z,22.87
2019-02-20T03:15:42.946Z,23.43
2019-02-20T03:18:11.346Z,24.07
2019-02-20T03:20:39.848Z,21.27
2019-02-20T03:23:08.589Z,20.43
2019-02-20T03:25:37.283Z,20.77
2019-02-20T03:28:06.010Z,19.40
2019-02-20T03:30:34.445Z,18.43
2019-02-20T03:33:03.129Z,21.13
2019-02-20T03:35:31.857Z,19.63
2019-02-20T03:38:01.941Z,21.07
2019-02-20T03:40:30.604Z,20.97
2019-02-20T03:42:59.362Z,21.20
2019-02-20T03:45:28.000Z,20.00
2019-02-20T03:47:56.494Z,19.83
2019-02-20T03:50:25.592Z,19.10
2019-02-20T03:52:53.941Z,20.27
2019-02-20T03:55:22.732Z,19.23
2019-02-20T03:57:51.445Z,21.83
2019-02-20T04:00:20.109Z,19.47
2019-02-20T04:02:49.054Z,18.63
2019-02-20T04:05:17.415Z,20.93
2019-02-20T04:07:46.153Z,20.23
2019-02-20T04:10:14.838Z,19.03
2019-02-20T04:12:43.568Z,18.73
2019-02-20T04:15:11.774Z,18.40
2019-02-20T04:17:40.282Z,18.87
2019-02-20T04:20:08.893Z,19.30
2019-02-20T04:22:37.653Z,17.97
2019-02-20T04:25:06.336Z,19.60
2019-02-20T04:27:35.330Z,18.83
2019-02-20T04:30:03.921Z,22.23
2019-02-20T04:32:32.301Z,20.43
2019-02-20T04:35:01.128Z,21.53
2019-02-20T04:37:29.774Z,19.93
2019-02-20T04:39:58.452Z,20.10
2019-02-20T04:42:27.176Z,20.70
2019-02-20T04:44:55.622Z,20.70
2019-02-20T04:47:24.310Z,23.37
2019-02-20T04:49:53.028Z,21.07
2019-02-20T04:52:21.491Z,24.37
2019-02-20T04:54:50.160Z,21.87
2019-02-20T04:57:18.877Z,19.47
2019-02-20T04:59:47.534Z,18.67
2019-02-20T05:02:15.785Z,19.67
2019-02-20T05:04:44.305Z,18.43
2019-02-20T05:07:13.264Z,20.00
2019-02-20T05:09:42.866Z,20.30
2019-02-20T05:12:13.460Z,19.10
2019-02-20T05:14:43.119Z,20.03
2019-02-20T05:17:11.789Z,18.80
2019-02-20T05:19:40.316Z,18.50
2019-02-20T05:22:09.328Z,17.23
2019-02-20T05:24:37.594Z,17.03
2019-02-20T05:27:06.404Z,17.87
2019-02-20T05:29:35.019Z,16.90
2019-02-20T05:32:03.723Z,17.00
2019-02-20T05:34:32.447Z,15.93
2019-02-20T05:37:02.107Z,17.93
2019-02-20T05:39:30.586Z,16.90
2019-02-20T05:41:59.298Z,21.63
2019-02-20T05:44:28.281Z,16.87
2019-02-20T05:46:56.840Z,18.93
2019-02-20T05:49:25.277Z,16.17
2019-02-20T05:51:53.386Z,22.23
2019-02-20T05:54:22.096Z,20.70
2019-02-20T05:56:50.590Z,17.23
2019-02-20T05:59:19.260Z,19.00
2019-02-20T06:01:47.964Z,17.90
2019-02-20T06:04:16.455Z,17.67
2019-02-20T06:06:45.158Z,20.67
2019-02-20T06:09:13.379Z,19.13
2019-02-20T06:11:42.002Z,17.93
2019-02-20T06:14:10.541Z,18.17
2019-02-20T06:16:39.226Z,18.40
2019-02-20T06:19:08.758Z,17.10
2019-02-20T06:21:37.421Z,17.23
2019-02-20T06:24:06.836Z,18.43
2019-02-20T06:26:35.853Z,19.60
2019-02-20T06:29:04.298Z,18.90
2019-02-20T06:31:32.978Z,18.33
2019-02-20T06:34:01.698Z,21.27
2019-02-20T06:36:31.376Z,20.07
2019-02-20T06:39:00.063Z,18.43
2019-02-20T06:41:38.333Z,18.97
2019-02-20T06:43:58.880Z,21.70
2019-02-20T06:46:28.383Z,18.20
2019-02-20T06:48:56.817Z,20.50
2019-02-20T06:51:25.250Z,19.63
2019-02-20T06:53:54.038Z,19.07
2019-02-20T06:56:23.467Z,20.17
2019-02-20T06:58:52.220Z,21.97
2019-02-20T07:01:21.108Z,21.53
2019-02-20T07:03:49.636Z,21.23
2019-02-20T07:06:43.474Z,18.50
2019-02-20T07:09:52.132Z,19.40
2019-02-20T07:13:02.149Z,19.13
2019-02-20T07:15:58.320Z,20.07
2019-02-20T07:19:03.202Z,19.10
2019-02-20T07:22:20.890Z,18.40
2019-02-20T07:25:03.359Z,18.17
2019-02-20T07:28:26.661Z,19.17
2019-02-20T07:30:55.120Z,18.13
2019-02-20T07:33:23.603Z,20.63
2019-02-20T07:35:51.907Z,19.07
2019-02-20T07:38:20.443Z,19.03
2019-02-20T07:40:49.026Z,20.67
2019-02-20T07:43:17.774Z,19.93
2019-02-20T07:45:46.597Z,19.87
2019-02-20T07:48:15.282Z,19.77
2019-02-20T07:50:43.811Z,21.17
2019-02-20T07:53:12.261Z,20.90
2019-02-20T07:55:40.937Z,20.13
2019-02-20T07:58:09.654Z,19.57
2019-02-20T08:00:38.307Z,19.37
2019-02-20T08:03:06.690Z,19.50
2019-02-20T08:05:35.507Z,19.70
2019-02-20T08:08:03.850Z,19.73
2019-02-20T08:10:32.647Z,18.67
2019-02-20T08:13:01.283Z,19.23
2019-02-20T08:15:30.859Z,21.40
2019-02-20T08:17:59.331Z,19.30
2019-02-20T08:20:28.036Z,20.80
2019-02-20T08:22:56.616Z,19.53
2019-02-20T08:25:25.484Z,22.57
2019-02-20T08:27:54.104Z,23.50
2019-02-20T08:30:22.766Z,24.90
2019-02-20T08:32:51.225Z,24.33
2019-02-20T08:35:19.936Z,25.30
2019-02-20T08:37:48.391Z,24.87
2019-02-20T08:40:17.287Z,25.63
2019-02-20T08:42:46.010Z,23.57
2019-02-20T08:45:14.858Z,23.87
2019-02-20T08:47:44.363Z,22.73
2019-02-20T08:50:12.867Z,23.07
2019-02-20T08:52:41.328Z,25.23
2019-02-20T08:55:09.728Z,23.97
2019-02-20T08:57:38.207Z,21.87
2019-02-20T09:00:09.323Z,22.13
2019-02-20T09:02:39.333Z,24.70
2019-02-20T09:05:07.867Z,24.93
2019-02-20T09:07:37.015Z,47.03
2019-02-20T09:10:06.173Z,27.70
2019-02-20T09:12:42.297Z,21.13
2019-02-20T09:15:10.992Z,21.77
2019-02-20T09:17:40.759Z,21.70
2019-02-20T09:20:09.571Z,23.20
2019-02-20T09:22:39.615Z,24.03
2019-02-20T09:25:09.120Z,27.30
2019-02-20T09:27:37.890Z,35.23
2019-02-20T09:30:10.123Z,24.50
2019-02-20T09:32:38.613Z,27.43
2019-02-20T09:35:08.216Z,29.93
2019-02-20T09:37:38.143Z,23.43
2019-02-20T09:40:09.278Z,25.40
2019-02-20T09:42:39.359Z,24.40
2019-02-20T09:45:08.105Z,23.57
2019-02-20T09:47:37.037Z,24.43
2019-02-20T09:50:06.032Z,24.80
2019-02-20T09:52:37.139Z,25.80
2019-02-20T09:55:05.953Z,24.17
2019-02-20T09:57:34.722Z,25.30
2019-02-20T10:00:05.875Z,24.63
2019-02-20T10:02:35.018Z,25.37
2019-02-20T10:05:03.555Z,25.47
2019-02-20T10:07:33.159Z,24.83
2019-02-20T10:10:04.449Z,24.97
2019-02-20T10:12:33.253Z,24.57
2019-02-20T10:15:02.846Z,25.50
2019-02-20T10:17:33.198Z,25.90
2019-02-20T10:20:04.563Z,24.77
2019-02-20T10:22:33.580Z,24.70
2019-02-20T10:25:02.422Z,25.00
2019-02-20T10:27:31.496Z,26.83
2019-02-20T10:30:02.047Z,25.90
2019-02-20T10:32:31.435Z,27.20
2019-02-20T10:35:01.054Z,25.87
2019-02-20T10:37:31.560Z,26.33
2019-02-20T10:40:00.342Z,26.83
2019-02-20T10:42:29.251Z,27.03
2019-02-20T10:44:57.881Z,28.50
2019-02-20T10:47:26.306Z,26.70
2019-02-20T10:49:54.949Z,30.03
2019-02-20T10:52:24.417Z,30.27
2019-02-20T10:54:57.689Z,30.80
2019-02-20T10:57:25.146Z,29.30
2019-02-20T10:59:54.862Z,28.97
2019-02-20T11:02:23.814Z,30.83
2019-02-20T11:04:52.593Z,28.03
2019-02-20T11:07:21.762Z,29.10
2019-02-20T11:09:50.477Z,30.17
2019-02-20T11:12:20.630Z,27.87
2019-02-20T11:14:49.464Z,28.57
2019-02-20T11:17:18.151Z,30.80
2019-02-20T11:19:46.515Z,31.93
2019-02-20T11:22:15.078Z,35.03
2019-02-20T11:24:44.654Z,33.03
2019-02-20T11:27:13.824Z,32.43
2019-02-20T11:29:42.556Z,32.10
2019-02-20T11:32:11.284Z,35.10
2019-02-20T11:34:39.948Z,33.43
2019-02-20T11:37:15.218Z,34.60
2019-02-20T11:39:43.779Z,34.27
2019-02-20T11:42:12.957Z,34.63
2019-02-20T11:44:42.082Z,33.97
2019-02-20T11:47:10.427Z,36.30
2019-02-20T11:49:39.374Z,29.37
2019-02-20T11:52:09.275Z,29.00
2019-02-20T11:54:38.719Z,30.90
2019-02-20T11:57:07.233Z,30.50
2019-02-20T11:59:37.080Z,29.73
2019-02-20T12:02:06.547Z,27.77
2019-02-20T12:04:34.948Z,27.97
2019-02-20T12:07:03.980Z,28.00
2019-02-20T12:09:35.621Z,25.73
2019-02-20T12:12:04.139Z,25.40
2019-02-20T12:14:38.990Z,27.57
2019-02-20T12:17:07.755Z,25.30
2019-02-20T12:19:37.276Z,24.53
2019-02-20T12:22:06.086Z,24.10
2019-02-20T12:24:34.639Z,23.37
2019-02-20T12:27:03.118Z,23.37
2019-02-20T12:29:31.932Z,21.97
2019-02-20T12:32:01.346Z,18.70
2019-02-20T12:34:30.179Z,19.03
2019-02-20T12:36:58.999Z,17.93
2019-02-20T12:39:27.825Z,19.30
2019-02-20T12:41:56.371Z,17.13
2019-02-20T12:44:25.093Z,18.57
2019-02-20T12:46:53.430Z,17.80
2019-02-20T12:49:22.207Z,17.77
2019-02-20T12:51:50.947Z,15.73
2019-02-20T12:54:19.521Z,13.10
2019-02-20T12:56:48.267Z,11.00
2019-02-20T12:59:18.014Z,10.90
2019-02-20T13:01:49.553Z,10.97
2019-02-20T13:04:17.856Z,10.37
2019-02-20T13:06:46.799Z,9.63
2019-02-20T13:09:21.882Z,9.77
2019-02-20T13:11:51.162Z,10.13
2019-02-20T13:14:21.287Z,9.37
2019-02-20T13:16:49.821Z,10.10
2019-02-20T13:19:18.927Z,9.47
2019-02-20T13:21:48.536Z,10.23
2019-02-20T13:24:17.035Z,9.87
2019-02-20T13:26:52.919Z,11.03
2019-02-20T13:29:17.590Z,10.40
2019-02-20T13:31:46.677Z,10.70
2019-02-20T13:34:15.996Z,10.80
2019-02-20T13:36:44.499Z,10.80
2019-02-20T13:39:13.129Z,11.13
2019-02-20T13:41:41.798Z,12.10
2019-02-20T13:44:10.829Z,11.13
2019-02-20T13:46:41.230Z,11.67
2019-02-20T13:49:09.905Z,13.20
2019-02-20T13:51:38.438Z,14.10
2019-02-20T13:54:07.096Z,12.73
2019-02-20T13:56:35.476Z,13.20
2019-02-20T13:59:04.291Z,12.90
2019-02-20T14:01:33.200Z,13.37
2019-02-20T14:04:01.736Z,13.43
2019-02-20T14:06:30.741Z,12.97
2019-02-20T14:08:59.387Z,12.93
2019-02-20T14:11:28.079Z,12.70
2019-02-20T14:13:57.806Z,13.90
2019-02-20T14:16:26.474Z,14.10
2019-02-20T14:18:55.157Z,12.43
2019-02-20T14:21:23.896Z,12.33
2019-02-20T14:23:52.725Z,11.53
2019-02-20T14:26:21.934Z,12.63
2019-02-20T14:28:50.542Z,11.43
2019-02-20T14:31:19.205Z,12.00
2019-02-20T14:33:47.888Z,11.77
2019-02-20T14:36:16.392Z,11.90
2019-02-20T14:38:46.072Z,11.10
2019-02-20T14:41:14.557Z,11.17
2019-02-20T14:43:43.070Z,11.20
2019-02-20T14:46:12.381Z,11.87
2019-02-20T14:48:41.041Z,10.87
2019-02-20T14:51:09.756Z,11.50
2019-02-20T14:53:38.295Z,11.63
2019-02-20T14:56:07.507Z,12.23
2019-02-20T14:58:36.586Z,12.30
2019-02-20T15:01:06.134Z,11.70
2019-02-20T15:03:35.097Z,11.77
2019-02-20T15:06:03.493Z,12.30
2019-02-20T15:08:33.883Z,11.90
2019-02-20T15:11:02.843Z,12.67
2019-02-20T15:13:31.398Z,12.57
2019-02-20T15:16:00.050Z,12.93
2019-02-20T15:18:28.734Z,12.63
2019-02-20T15:20:57.452Z,12.57
2019-02-20T15:23:25.801Z,13.83
2019-02-20T15:25:54.594Z,13.20
2019-02-20T15:28:23.202Z,13.13
2019-02-20T15:30:51.975Z,13.93
2019-02-20T15:33:20.647Z,12.90
2019-02-20T15:35:49.074Z,13.23
2019-02-20T15:38:17.386Z,13.77
2019-02-20T15:40:46.807Z,12.77
2019-02-20T15:43:15.426Z,13.50
2019-02-20T15:45:43.992Z,12.57
2019-02-20T15:48:12.753Z,13.07
2019-02-20T15:50:41.471Z,12.63
2019-02-20T15:53:10.146Z,12.77
2019-02-20T15:55:38.826Z,11.80
2019-02-20T15:58:07.535Z,11.80
2019-02-20T16:00:36.297Z,11.23
2019-02-20T16:03:05.092Z,11.43
2019-02-20T16:05:34.047Z,11.10
2019-02-20T16:08:02.656Z,11.40
2019-02-20T16:10:34.793Z,11.57
2019-02-20T16:13:03.801Z,10.70
2019-02-20T16:15:32.412Z,11.50
2019-02-20T16:18:01.014Z,11.77
2019-02-20T16:20:30.617Z,10.87
2019-02-20T16:23:00.319Z,11.20
2019-02-20T16:25:29.936Z,11.30
2019-02-20T16:27:58.735Z,11.70
2019-02-20T16:30:27.807Z,10.97
2019-02-20T16:32:57.400Z,10.40
2019-02-20T16:35:25.983Z,11.00
2019-02-20T16:37:55.699Z,11.20
2019-02-20T16:40:24.701Z,11.17
2019-02-20T16:42:53.889Z,11.20
2019-02-20T16:45:24.459Z,11.30
2019-02-20T16:47:53.646Z,10.70
2019-02-20T16:50:24.324Z,10.90
2019-02-20T16:52:52.927Z,10.37
2019-02-20T16:55:22.668Z,12.07
2019-02-20T16:57:56.851Z,12.03
2019-02-20T17:00:23.633Z,11.30
2019-02-20T17:02:53.032Z,10.90
2019-02-20T17:05:27.357Z,10.93
2019-02-20T17:07:55.890Z,12.03
2019-02-20T17:10:24.566Z,11.70
2019-02-20T17:12:53.008Z,12.30
2019-02-20T17:15:22.299Z,11.80
2019-02-20T17:18:00.837Z,11.87
2019-02-20T17:20:31.431Z,13.20
2019-02-20T17:23:00.423Z,17.80
2019-02-20T17:25:29.482Z,17.00
2019-02-20T17:28:05.551Z,15.27
2019-02-20T17:30:28.949Z,11.93
2019-02-20T17:32:57.505Z,11.40
2019-02-20T17:35:25.992Z,11.00
2019-02-20T17:37:54.521Z,11.07
2019-02-20T17:40:23.139Z,11.27
2019-02-20T17:42:52.267Z,11.80
2019-02-20T17:45:20.950Z,12.47
2019-02-20T17:47:49.399Z,12.03
2019-02-20T17:50:18.514Z,12.10
2019-02-20T17:52:47.129Z,11.40
2019-02-20T17:55:15.666Z,15.63
2019-02-20T17:57:46.880Z,18.33
2019-02-20T18:00:16.959Z,16.70
2019-02-20T18:02:46.506Z,13.90
2019-02-20T18:05:15.168Z,13.20
2019-02-20T18:07:49.888Z,11.80
2019-02-20T18:10:14.811Z,12.10
2019-02-20T18:12:43.739Z,13.00
2019-02-20T18:15:12.594Z,13.13
2019-02-20T18:17:41.240Z,13.13
2019-02-20T18:20:10.148Z,13.00
2019-02-20T18:22:39.039Z,12.90
2019-02-20T18:25:09.933Z,13.20
2019-02-20T18:27:38.570Z,13.27
2019-02-20T18:30:07.870Z,14.13
2019-02-20T18:32:37.009Z,14.27
2019-02-20T18:35:06.547Z,18.37
2019-02-20T18:37:35.228Z,22.93
2019-02-20T18:40:04.301Z,18.80
2019-02-20T18:42:32.699Z,16.40
2019-02-20T18:45:02.507Z,14.53
2019-02-20T18:47:32.719Z,14.23
2019-02-20T18:50:01.289Z,13.00
2019-02-20T18:52:29.755Z,13.67
2019-02-20T18:55:05.536Z,14.67
2019-02-20T18:57:29.580Z,15.10
2019-02-20T18:59:58.097Z,14.33
2019-02-20T19:02:26.870Z,14.03
2019-02-20T19:04:56.370Z,14.43
2019-02-20T19:07:24.853Z,14.73
2019-02-20T19:09:54.275Z,14.37
2019-02-20T19:13:02.416Z,14.60
2019-02-20T19:16:11.752Z,14.13
2019-02-20T19:19:09.902Z,13.23
2019-02-20T19:22:16.543Z,14.30
2019-02-20T19:25:23.074Z,14.20
2019-02-20T19:28:15.724Z,14.77
2019-02-20T19:31:27.980Z,14.93
2019-02-20T19:34:28.032Z,14.60
2019-02-20T19:37:29.064Z,15.10
2019-02-20T19:40:30.988Z,14.70
2019-02-20T19:43:32.445Z,14.97
2019-02-20T19:46:26.626Z,15.63
2019-02-20T19:49:36.388Z,15.93
2019-02-20T19:52:25.953Z,16.40
2019-02-20T19:55:33.073Z,16.50
2019-02-20T19:58:25.539Z,16.73
2019-02-20T20:01:31.031Z,16.70
2019-02-20T20:04:15.266Z,17.73
2019-02-20T20:07:29.605Z,18.27
2019-02-20T20:10:33.520Z,17.47
2019-02-20T20:13:27.958Z,16.90
2019-02-20T20:16:27.372Z,19.47
2019-02-20T20:19:49.190Z,17.80
2019-02-20T20:22:42.207Z,18.97
2019-02-20T20:25:24.541Z,21.13
2019-02-20T20:28:26.690Z,22.97
2019-02-20T20:31:24.665Z,22.77
2019-02-20T20:34:33.545Z,21.97
2019-02-20T20:37:52.165Z,22.97
2019-02-20T20:41:01.851Z,23.40
2019-02-20T20:44:04.296Z,23.43
2019-02-20T20:46:59.242Z,23.50
2019-02-20T20:50:22.433Z,24.37
2019-02-20T20:53:21.544Z,24.57
2019-02-20T20:56:57.644Z,27.57
2019-02-20T21:00:07.299Z,28.03
2019-02-20T21:02:50.758Z,29.30
2019-02-20T21:06:18.343Z,34.43
2019-02-20T21:09:33.805Z,35.10
2019-02-20T21:12:56.339Z,36.17
2019-02-20T21:15:55.714Z,38.93
2019-02-20T21:18:57.718Z,39.13
2019-02-20T21:21:40.406Z,32.03
2019-02-20T21:24:59.207Z,39.97
2019-02-20T21:27:58.493Z,39.97
2019-02-20T21:30:56.972Z,38.70
2019-02-20T21:34:09.062Z,37.57
2019-02-20T21:36:55.892Z,29.97
2019-02-20T21:39:40.506Z,28.97
2019-02-20T21:42:48.674Z,30.80
2019-02-20T21:45:58.354Z,32.03
2019-02-20T21:49:18.277Z,36.17
2019-02-20T21:52:25.040Z,27.60
2019-02-20T21:55:43.743Z,28.57
2019-02-20T21:58:53.981Z,30.83
2019-02-20T22:01:49.679Z,28.37
2019-02-20T22:04:52.753Z,26.07
2019-02-20T22:07:46.499Z,23.40
2019-02-20T22:11:14.088Z,24.53
2019-02-20T22:14:29.905Z,25.83
2019-02-20T22:17:48.745Z,24.77
2019-02-20T22:21:00.698Z,25.13
2019-02-20T22:23:49.184Z,26.87
2019-02-20T22:26:32.261Z,26.10
2019-02-20T22:29:53.057Z,27.83
2019-02-20T22:32:53.380Z,31.50
2019-02-20T22:35:51.938Z,29.80
2019-02-20T22:38:48.386Z,27.37
2019-02-20T22:41:40.912Z,27.40
2019-02-20T22:44:46.501Z,33.97
2019-02-20T22:47:55.080Z,32.77
2019-02-20T22:51:06.411Z,27.93
2019-02-20T22:54:12.126Z,28.27
2019-02-20T22:57:26.204Z,27.20
2019-02-20T23:00:34.966Z,29.00
2019-02-20T23:03:42.118Z,29.07
2019-02-20T23:06:54.380Z,28.50
2019-02-20T23:09:49.760Z,28.33
2019-02-20T23:12:52.190Z,29.53
2019-02-20T23:15:21.002Z,32.00
2019-02-20T23:17:49.758Z,32.63
2019-02-20T23:20:18.445Z,35.57
2019-02-20T23:22:46.878Z,31.80
2019-02-20T23:25:15.602Z,42.47
2019-02-20T23:27:44.312Z,36.23
2019-02-20T23:30:13.414Z,41.90
2019-02-20T23:32:43.302Z,35.57
2019-02-20T23:35:12.100Z,36.60
2019-02-20T23:37:40.901Z,36.50
2019-02-20T23:40:09.983Z,36.67
2019-02-20T23:42:38.659Z,36.00
2019-02-20T23:45:07.146Z,34.00
2019-02-20T23:47:36.027Z,33.63
2019-02-20T23:50:04.826Z,32.03
2019-02-20T23:52:33.665Z,32.50
2019-02-20T23:55:02.288Z,32.63
2019-02-20T23:57:31.272Z,31.60
2019-02-20T23:59:59.711Z,31.00
